createdAt,value
2022-10-30T00:01:08.657Z,14.89
2022-10-30T00:03:43.395Z,14.84
2022-10-30T00:06:11.634Z,14.87
2022-10-30T00:08:39.825Z,14.76
2022-10-30T00:11:09.374Z,14.62
2022-10-30T00:13:37.568Z,14.68
2022-10-30T00:16:07.256Z,14.50
2022-10-30T00:18:36.290Z,14.47
2022-10-30T00:21:10.935Z,14.33
2022-10-30T00:23:39.734Z,14.14
2022-10-30T00:26:07.978Z,14.03
2022-10-30T00:28:35.634Z,14.07
2022-10-30T00:31:05.368Z,14.17
2022-10-30T00:33:32.848Z,14.16
2022-10-30T00:36:00.558Z,14.09
2022-10-30T00:38:29.913Z,14.04
2022-10-30T00:40:57.147Z,14.02
2022-10-30T00:43:30.535Z,14.14
2022-10-30T00:46:02.348Z,14.33
2022-10-30T00:48:29.898Z,14.21
2022-10-30T00:51:00.403Z,13.92
2022-10-30T00:53:30.069Z,13.75
2022-10-30T00:56:02.740Z,13.57
2022-10-30T00:58:34.730Z,13.44
2022-10-30T01:01:07.849Z,13.48
2022-10-30T01:03:37.191Z,13.57
2022-10-30T01:06:09.082Z,13.44
2022-10-30T01:08:38.670Z,13.40
2022-10-30T01:11:06.651Z,13.29
2022-10-30T01:13:36.720Z,13.26
2022-10-30T01:16:21.552Z,13.30
2022-10-30T01:18:58.784Z,13.34
2022-10-30T01:21:44.963Z,13.42
2022-10-30T01:24:28.121Z,13.39
2022-10-30T01:27:07.183Z,13.40
2022-10-30T01:29:49.048Z,13.46
2022-10-30T01:32:33.908Z,13.50
2022-10-30T01:35:06.571Z,13.52
2022-10-30T01:37:36.657Z,13.55
2022-10-30T01:40:10.588Z,13.59
2022-10-30T01:42:51.301Z,13.35
2022-10-30T01:45:32.768Z,13.31
2022-10-30T01:48:28.015Z,13.13
2022-10-30T01:51:00.027Z,13.25
2022-10-30T01:53:42.249Z,13.12
2022-10-30T01:56:20.722Z,13.22
2022-10-30T01:58:55.095Z,13.16
2022-10-30T02:01:25.598Z,13.10
2022-10-30T02:03:53.372Z,13.07
2022-10-30T02:06:21.206Z,12.98
2022-10-30T02:08:48.972Z,13.03
2022-10-30T02:11:18.594Z,13.09
2022-10-30T02:13:46.011Z,12.96
2022-10-30T02:16:13.906Z,12.96
2022-10-30T02:18:41.384Z,13.02
2022-10-30T02:21:10.941Z,12.99
2022-10-30T02:23:38.724Z,12.97
2022-10-30T02:26:06.514Z,12.88
2022-10-30T02:28:34.115Z,12.91
2022-10-30T02:31:01.811Z,12.97
2022-10-30T02:33:29.163Z,12.87
2022-10-30T02:35:56.540Z,12.54
2022-10-30T02:38:26.280Z,12.54
2022-10-30T02:40:53.782Z,12.49
2022-10-30T02:43:21.146Z,12.27
2022-10-30T02:45:51.151Z,12.24
2022-10-30T02:48:18.554Z,12.27
2022-10-30T02:50:45.844Z,12.29
2022-10-30T02:53:13.989Z,12.58
2022-10-30T02:55:42.657Z,12.62
2022-10-30T02:58:09.998Z,12.67
2022-10-30T03:00:37.931Z,12.44
2022-10-30T03:03:05.416Z,12.40
2022-10-30T03:05:32.812Z,12.34
2022-10-30T03:08:01.167Z,12.11
2022-10-30T03:10:28.784Z,12.23
2022-10-30T03:12:58.833Z,12.15
2022-10-30T03:15:26.519Z,12.17
2022-10-30T03:17:53.993Z,12.13
2022-10-30T03:20:21.556Z,12.30
2022-10-30T03:22:49.419Z,12.24
2022-10-30T03:25:16.940Z,12.23
2022-10-30T03:27:44.646Z,12.25
2022-10-30T03:30:13.953Z,12.45
2022-10-30T03:32:41.302Z,12.50
2022-10-30T03:35:09.257Z,12.55
2022-10-30T03:37:36.555Z,12.47
2022-10-30T03:40:04.439Z,12.43
2022-10-30T03:42:32.035Z,12.39
2022-10-30T03:45:02.436Z,12.26
2022-10-30T03:47:31.474Z,12.19
2022-10-30T03:49:59.232Z,12.13
2022-10-30T03:52:27.715Z,12.17
2022-10-30T03:54:54.981Z,12.19
2022-10-30T03:57:22.675Z,11.92
2022-10-30T03:59:49.961Z,12.06
2022-10-30T04:02:17.513Z,12.19
2022-10-30T04:04:48.506Z,12.02
2022-10-30T04:07:15.831Z,12.05
2022-10-30T04:09:43.236Z,12.00
2022-10-30T04:12:11.254Z,12.09
2022-10-30T04:14:38.473Z,11.97
2022-10-30T04:17:05.965Z,11.92
2022-10-30T04:19:33.790Z,11.95
2022-10-30T04:22:02.494Z,11.97
2022-10-30T04:24:29.749Z,11.94
2022-10-30T04:26:57.390Z,11.85
2022-10-30T04:29:24.641Z,11.86
2022-10-30T04:31:52.058Z,11.77
2022-10-30T04:34:19.673Z,11.78
2022-10-30T04:36:47.006Z,11.76
2022-10-30T04:39:15.841Z,11.67
2022-10-30T04:41:43.888Z,11.67
2022-10-30T04:44:11.326Z,11.57
2022-10-30T04:46:38.638Z,11.54
2022-10-30T04:49:06.524Z,11.62
2022-10-30T04:51:33.981Z,11.63
2022-10-30T04:54:01.377Z,11.64
2022-10-30T04:56:30.662Z,11.64
2022-10-30T04:58:57.956Z,11.65
2022-10-30T05:01:25.839Z,11.70
2022-10-30T05:03:54.940Z,11.66
2022-10-30T05:06:24.760Z,11.66
2022-10-30T05:08:52.571Z,11.56
2022-10-30T05:11:20.284Z,11.54
2022-10-30T05:13:49.050Z,11.47
2022-10-30T05:16:16.760Z,11.49
2022-10-30T05:18:44.384Z,11.50
2022-10-30T05:21:12.814Z,11.46
2022-10-30T05:26:24.945Z,11.34
2022-10-30T05:28:53.759Z,11.36
2022-10-30T05:31:21.258Z,11.35
2022-10-30T05:33:49.013Z,11.32
2022-10-30T05:36:16.258Z,11.38
2022-10-30T05:38:44.119Z,11.28
2022-10-30T05:41:11.788Z,11.19
2022-10-30T05:43:39.691Z,11.23
2022-10-30T05:46:08.786Z,11.27
2022-10-30T05:48:36.353Z,11.49
2022-10-30T05:51:04.210Z,11.54
2022-10-30T05:53:31.563Z,11.47
2022-10-30T05:55:59.545Z,11.36
2022-10-30T05:58:27.786Z,11.35
2022-10-30T06:00:55.351Z,11.39
2022-10-30T06:03:24.841Z,11.32
2022-10-30T06:05:52.222Z,11.34
2022-10-30T06:08:20.326Z,11.23
2022-10-30T06:10:47.707Z,11.29
2022-10-30T06:13:15.435Z,11.31
2022-10-30T06:15:43.593Z,11.38
2022-10-30T06:18:11.237Z,11.57
2022-10-30T06:20:40.223Z,11.68
2022-10-30T06:23:10.098Z,11.73
2022-10-30T06:25:41.154Z,11.63
2022-10-30T06:28:10.468Z,11.52
2022-10-30T06:30:37.748Z,11.38
2022-10-30T06:33:06.244Z,11.63
2022-10-30T06:35:34.187Z,11.90
2022-10-30T06:38:02.910Z,11.98
2022-10-30T06:40:30.868Z,12.25
2022-10-30T06:42:59.256Z,12.55
2022-10-30T06:45:27.039Z,12.61
2022-10-30T06:47:54.575Z,12.63
2022-10-30T06:50:22.518Z,12.85
2022-10-30T06:52:50.073Z,12.95
2022-10-30T06:55:19.015Z,13.19
2022-10-30T06:57:46.801Z,13.39
2022-10-30T07:00:14.805Z,13.53
2022-10-30T07:02:42.714Z,13.62
2022-10-30T07:05:10.557Z,13.67
2022-10-30T07:07:38.173Z,13.75
2022-10-30T07:10:06.568Z,13.83
2022-10-30T07:12:36.186Z,13.93
2022-10-30T07:15:03.863Z,13.94
2022-10-30T07:17:31.294Z,13.99
2022-10-30T07:19:59.009Z,13.99
2022-10-30T07:22:26.562Z,14.15
2022-10-30T07:24:53.962Z,14.41
2022-10-30T07:27:21.578Z,14.59
2022-10-30T07:29:50.402Z,14.82
2022-10-30T07:32:17.850Z,14.83
2022-10-30T07:34:45.521Z,14.68
2022-10-30T07:37:12.914Z,14.88
2022-10-30T07:39:40.684Z,15.18
2022-10-30T07:42:08.541Z,15.47
2022-10-30T07:44:37.569Z,15.64
2022-10-30T07:47:06.785Z,15.68
2022-10-30T07:49:34.698Z,15.79
2022-10-30T07:52:02.121Z,15.96
2022-10-30T07:54:29.975Z,16.07
2022-10-30T07:56:57.342Z,16.23
2022-10-30T07:59:28.480Z,16.34
2022-10-30T08:01:56.968Z,16.73
2022-10-30T08:04:25.823Z,17.06
2022-10-30T08:06:53.941Z,17.41
2022-10-30T08:09:21.616Z,17.42
2022-10-30T08:11:49.759Z,17.59
2022-10-30T08:14:17.066Z,17.73
2022-10-30T08:16:44.868Z,17.84
2022-10-30T08:19:12.254Z,17.93
2022-10-30T08:21:41.662Z,17.90
2022-10-30T08:24:09.465Z,18.03
2022-10-30T08:26:37.352Z,18.03
2022-10-30T08:29:04.866Z,17.88
2022-10-30T08:31:32.786Z,17.90
2022-10-30T08:34:00.181Z,17.98
2022-10-30T08:36:27.668Z,18.00
2022-10-30T08:38:56.862Z,18.01
2022-10-30T08:41:24.544Z,18.14
2022-10-30T08:43:52.510Z,18.15
2022-10-30T08:46:19.870Z,18.47
2022-10-30T08:48:47.588Z,18.81
2022-10-30T08:51:15.035Z,18.96
2022-10-30T08:53:42.979Z,19.28
2022-10-30T08:56:11.923Z,19.22
2022-10-30T08:58:39.874Z,19.38
2022-10-30T09:01:07.309Z,19.25
2022-10-30T09:03:35.515Z,19.50
2022-10-30T09:06:03.129Z,19.73
2022-10-30T09:08:30.750Z,19.68
2022-10-30T09:10:58.925Z,19.82
2022-10-30T09:13:27.967Z,19.96
2022-10-30T09:15:59.777Z,20.19
2022-10-30T09:18:27.951Z,20.49
2022-10-30T09:20:55.401Z,20.48
2022-10-30T09:23:23.060Z,20.61
2022-10-30T09:25:50.951Z,20.65
2022-10-30T09:28:18.492Z,20.71
2022-10-30T09:30:47.385Z,20.78
2022-10-30T09:33:15.131Z,20.84
2022-10-30T09:35:42.772Z,20.96
2022-10-30T09:38:10.228Z,21.05
2022-10-30T09:40:53.449Z,21.13
2022-10-30T09:43:32.631Z,21.13
2022-10-30T09:46:20.693Z,21.22
2022-10-30T09:49:02.456Z,21.52
2022-10-30T09:51:55.474Z,21.47
2022-10-30T09:54:32.884Z,21.50
2022-10-30T09:57:05.850Z,21.58
2022-10-30T09:59:45.498Z,21.60
2022-10-30T10:02:31.480Z,21.78
2022-10-30T10:05:04.242Z,22.00
2022-10-30T10:07:35.459Z,22.31
2022-10-30T10:10:08.229Z,22.11
2022-10-30T10:12:43.671Z,21.80
2022-10-30T10:15:16.874Z,21.79
2022-10-30T10:17:46.615Z,21.83
2022-10-30T10:20:27.117Z,22.02
2022-10-30T10:22:57.348Z,22.22
2022-10-30T10:25:27.397Z,22.39
2022-10-30T10:28:07.587Z,22.38
2022-10-30T10:30:44.240Z,22.07
2022-10-30T10:33:46.367Z,22.26
2022-10-30T10:36:25.144Z,22.25
2022-10-30T10:39:14.790Z,22.46
2022-10-30T10:41:58.174Z,22.60
2022-10-30T10:44:37.981Z,22.95
2022-10-30T10:47:27.197Z,23.01
2022-10-30T10:50:14.421Z,23.00
2022-10-30T10:52:47.628Z,22.93
2022-10-30T10:55:19.016Z,22.73
2022-10-30T10:57:48.265Z,22.77
2022-10-30T11:00:18.598Z,22.83
2022-10-30T11:02:54.815Z,22.89
2022-10-30T11:05:32.674Z,22.93
2022-10-30T11:08:10.942Z,23.03
2022-10-30T11:10:41.626Z,23.19
2022-10-30T11:13:11.886Z,23.38
2022-10-30T11:15:55.143Z,23.77
2022-10-30T11:18:22.625Z,24.06
2022-10-30T11:20:57.775Z,24.06
2022-10-30T11:23:33.386Z,24.08
2022-10-30T11:26:02.448Z,24.34
2022-10-30T11:28:40.647Z,24.18
2022-10-30T11:31:19.568Z,24.17
2022-10-30T11:33:47.781Z,24.43
2022-10-30T11:36:19.126Z,24.47
2022-10-30T11:38:46.582Z,24.40
2022-10-30T11:41:15.348Z,24.25
2022-10-30T11:43:47.199Z,24.37
2022-10-30T11:46:22.590Z,24.60
2022-10-30T11:48:50.102Z,24.35
2022-10-30T11:51:32.345Z,24.45
2022-10-30T11:54:01.172Z,24.43
2022-10-30T11:56:30.744Z,24.51
2022-10-30T11:59:02.302Z,24.61
2022-10-30T12:01:32.201Z,24.62
2022-10-30T12:04:14.760Z,24.77
2022-10-30T12:06:44.224Z,25.02
2022-10-30T12:09:13.846Z,25.29
2022-10-30T12:11:43.654Z,24.86
2022-10-30T12:14:19.455Z,24.97
2022-10-30T12:16:48.742Z,24.91
2022-10-30T12:19:18.342Z,24.77
2022-10-30T12:21:49.752Z,24.97
2022-10-30T12:24:21.509Z,25.08
2022-10-30T12:26:51.423Z,24.92
2022-10-30T12:29:21.543Z,24.95
2022-10-30T12:31:55.837Z,24.83
2022-10-30T12:34:38.948Z,24.85
2022-10-30T12:37:13.222Z,24.97
2022-10-30T12:39:50.263Z,24.87
2022-10-30T12:42:18.887Z,24.91
2022-10-30T12:44:52.094Z,25.43
2022-10-30T12:47:27.268Z,25.71
2022-10-30T12:50:00.998Z,25.96
2022-10-30T12:52:36.086Z,26.10
2022-10-30T12:55:13.476Z,25.76
2022-10-30T12:57:46.551Z,25.61
2022-10-30T13:00:16.751Z,25.90
2022-10-30T13:02:54.019Z,26.02
2022-10-30T13:05:34.033Z,26.23
2022-10-30T13:08:13.093Z,26.04
2022-10-30T13:10:44.542Z,26.19
2022-10-30T13:13:14.636Z,26.23
2022-10-30T13:15:47.200Z,26.44
2022-10-30T13:18:17.593Z,26.60
2022-10-30T13:20:58.920Z,26.41
2022-10-30T13:23:35.635Z,26.52
2022-10-30T13:26:15.841Z,26.49
2022-10-30T13:28:52.440Z,26.53
2022-10-30T13:31:43.237Z,26.32
2022-10-30T13:34:26.311Z,26.32
2022-10-30T13:36:58.845Z,26.32
2022-10-30T13:39:34.664Z,25.98
2022-10-30T13:42:18.217Z,26.07
2022-10-30T13:44:55.888Z,26.01
2022-10-30T13:47:41.130Z,26.19
2022-10-30T13:50:34.202Z,26.34
2022-10-30T13:53:05.452Z,26.31
2022-10-30T13:55:50.009Z,26.29
2022-10-30T13:58:25.708Z,26.37
2022-10-30T14:01:01.617Z,26.35
2022-10-30T14:03:39.276Z,26.28
2022-10-30T14:06:14.378Z,26.43
2022-10-30T14:08:49.147Z,26.27
2022-10-30T14:11:18.423Z,26.13
2022-10-30T14:13:50.298Z,26.12
2022-10-30T14:17:03.616Z,26.12
2022-10-30T14:19:31.083Z,26.33
2022-10-30T14:21:58.835Z,26.42
2022-10-30T14:24:29.599Z,26.26
2022-10-30T14:27:11.418Z,26.26
2022-10-30T14:29:49.955Z,26.36
2022-10-30T14:32:41.566Z,26.39
2022-10-30T14:35:32.846Z,26.45
2022-10-30T14:38:16.590Z,26.31
2022-10-30T14:40:56.115Z,26.10
2022-10-30T14:43:31.269Z,26.21
2022-10-30T14:46:01.625Z,26.36
2022-10-30T14:48:41.585Z,26.30
2022-10-30T14:51:16.642Z,26.24
2022-10-30T14:53:56.549Z,25.73
2022-10-30T14:56:34.501Z,25.53
2022-10-30T14:59:22.351Z,25.34
2022-10-30T15:02:00.190Z,25.21
2022-10-30T15:04:40.656Z,25.13
2022-10-30T15:07:17.718Z,25.00
2022-10-30T15:09:58.152Z,24.66
2022-10-30T15:12:40.942Z,24.55
2022-10-30T15:15:14.592Z,24.41
2022-10-30T15:17:44.513Z,24.23
2022-10-30T15:20:18.354Z,24.18
2022-10-30T15:22:49.560Z,23.65
2022-10-30T15:25:19.464Z,23.28
2022-10-30T15:27:50.742Z,23.22
2022-10-30T15:30:22.113Z,23.12
2022-10-30T15:32:50.047Z,22.82
2022-10-30T15:35:19.304Z,22.38
2022-10-30T15:38:01.484Z,22.07
2022-10-30T15:40:30.236Z,21.83
2022-10-30T15:43:01.041Z,21.67
2022-10-30T15:45:33.965Z,21.66
2022-10-30T15:48:08.305Z,21.55
2022-10-30T15:50:38.583Z,21.12
2022-10-30T15:53:07.495Z,20.80
2022-10-30T15:55:35.691Z,20.29
2022-10-30T15:58:05.457Z,19.99
2022-10-30T16:00:36.356Z,19.88
2022-10-30T16:03:06.406Z,19.52
2022-10-30T16:05:35.028Z,19.39
2022-10-30T16:08:04.124Z,19.09
2022-10-30T16:10:34.714Z,19.18
2022-10-30T16:13:04.006Z,19.12
2022-10-30T16:15:38.736Z,19.21
2022-10-30T16:18:14.700Z,19.18
2022-10-30T16:20:45.667Z,19.13
2022-10-30T16:23:14.294Z,19.04
2022-10-30T16:25:47.008Z,19.03
2022-10-30T16:28:27.382Z,19.05
2022-10-30T16:30:59.001Z,18.99
2022-10-30T16:33:28.369Z,18.89
2022-10-30T16:35:57.085Z,18.86
2022-10-30T16:38:27.870Z,18.81
2022-10-30T16:40:55.946Z,18.79
2022-10-30T16:43:27.235Z,18.80
2022-10-30T16:45:57.502Z,18.77
2022-10-30T16:48:34.503Z,18.77
2022-10-30T16:51:04.013Z,18.73
2022-10-30T16:53:32.220Z,18.72
2022-10-30T16:56:00.261Z,18.69
2022-10-30T16:58:30.622Z,18.57
2022-10-30T17:01:04.618Z,18.55
2022-10-30T17:03:37.379Z,18.51
2022-10-30T17:06:07.491Z,18.31
2022-10-30T17:08:40.885Z,18.25
2022-10-30T17:11:17.781Z,18.20
2022-10-30T17:13:59.267Z,18.15
2022-10-30T17:16:30.091Z,18.20
2022-10-30T17:18:59.674Z,17.91
2022-10-30T17:21:30.587Z,17.89
2022-10-30T17:24:00.089Z,17.48
2022-10-30T17:26:29.649Z,17.20
2022-10-30T17:28:56.962Z,17.08
2022-10-30T17:31:30.155Z,16.58
2022-10-30T17:34:11.720Z,16.26
2022-10-30T17:36:39.119Z,16.06
2022-10-30T17:39:07.145Z,16.19
2022-10-30T17:41:35.543Z,16.23
2022-10-30T17:44:03.855Z,16.24
2022-10-30T17:46:33.002Z,16.17
2022-10-30T17:49:03.371Z,16.04
2022-10-30T17:51:30.783Z,16.07
2022-10-30T17:53:58.191Z,15.90
2022-10-30T17:56:28.622Z,15.74
2022-10-30T17:58:56.236Z,15.62
2022-10-30T18:01:26.278Z,15.64
2022-10-30T18:03:56.170Z,15.54
2022-10-30T18:06:27.860Z,15.52
2022-10-30T18:08:55.593Z,15.57
2022-10-30T18:11:24.623Z,15.49
2022-10-30T18:13:53.020Z,15.43
2022-10-30T18:16:20.955Z,15.47
2022-10-30T18:18:48.893Z,15.49
2022-10-30T18:21:19.908Z,15.66
2022-10-30T18:23:52.699Z,15.59
2022-10-30T18:26:22.066Z,15.48
2022-10-30T18:28:50.492Z,15.52
2022-10-30T18:31:20.232Z,15.49
2022-10-30T18:33:48.307Z,15.59
2022-10-30T18:36:20.367Z,15.43
2022-10-30T18:38:48.843Z,15.35
2022-10-30T18:41:18.673Z,15.38
2022-10-30T18:43:47.343Z,15.26
2022-10-30T18:46:15.623Z,15.12
2022-10-30T18:48:43.628Z,15.11
2022-10-30T18:51:16.429Z,15.05
2022-10-30T18:53:46.356Z,15.09
2022-10-30T18:56:14.040Z,15.06
2022-10-30T18:58:42.037Z,15.00
2022-10-30T19:01:12.313Z,14.87
2022-10-30T19:03:40.834Z,14.85
2022-10-30T19:06:11.888Z,14.87
2022-10-30T19:08:40.115Z,14.86
2022-10-30T19:11:12.156Z,14.75
2022-10-30T19:13:40.185Z,14.82
2022-10-30T19:16:11.501Z,14.78
2022-10-30T19:18:38.865Z,14.87
2022-10-30T19:21:10.302Z,14.91
2022-10-30T19:23:42.359Z,14.95
2022-10-30T19:28:39.300Z,15.03
2022-10-30T19:31:08.306Z,14.91
2022-10-30T19:33:35.794Z,15.00
2022-10-30T19:36:04.866Z,14.91
2022-10-30T19:38:34.331Z,14.89
2022-10-30T19:41:02.646Z,14.79
2022-10-30T19:43:31.630Z,14.69
2022-10-30T19:45:59.653Z,14.66
2022-10-30T19:48:56.205Z,14.48
2022-10-30T19:51:15.034Z,14.07
2022-10-30T19:53:42.899Z,13.45
2022-10-30T19:56:12.930Z,13.36
2022-10-30T19:58:41.810Z,13.00
2022-10-30T20:01:11.438Z,13.04
2022-10-30T20:03:38.955Z,13.22
2022-10-30T20:06:07.714Z,13.32
2022-10-30T20:08:35.392Z,13.39
2022-10-30T20:11:03.688Z,13.41
2022-10-30T20:13:31.116Z,13.42
2022-10-30T20:16:01.345Z,13.42
2022-10-30T20:18:31.619Z,13.44
2022-10-30T20:21:00.646Z,13.37
2022-10-30T20:23:28.769Z,13.34
2022-10-30T20:25:59.899Z,13.41
2022-10-30T20:28:31.267Z,13.34
2022-10-30T20:31:00.967Z,13.33
2022-10-30T20:33:29.205Z,13.27
2022-10-30T20:35:57.410Z,13.21
2022-10-30T20:38:27.214Z,13.32
2022-10-30T20:40:55.281Z,13.33
2022-10-30T20:43:30.299Z,13.34
2022-10-30T20:46:02.530Z,13.55
2022-10-30T20:48:30.118Z,13.61
2022-10-30T20:51:01.079Z,13.35
2022-10-30T20:53:29.326Z,13.29
2022-10-30T20:55:57.514Z,13.26
2022-10-30T20:58:25.004Z,13.23
2022-10-30T21:00:54.436Z,13.38
2022-10-30T21:03:24.070Z,13.50
2022-10-30T21:05:56.056Z,13.29
2022-10-30T21:08:23.832Z,12.95
2022-10-30T21:10:51.330Z,12.95
2022-10-30T21:13:18.644Z,12.96
2022-10-30T21:15:46.756Z,12.90
2022-10-30T21:18:14.443Z,12.78
2022-10-30T21:20:43.446Z,12.56
2022-10-30T21:23:13.072Z,12.62
2022-10-30T21:25:40.716Z,12.66
2022-10-30T21:28:08.180Z,12.72
2022-10-30T21:30:36.296Z,12.77
2022-10-30T21:33:04.263Z,12.71
2022-10-30T21:35:31.886Z,12.57
2022-10-30T21:38:01.997Z,12.64
2022-10-30T21:40:29.525Z,12.68
2022-10-30T21:43:01.300Z,12.70
2022-10-30T21:45:32.358Z,12.59
2022-10-30T21:47:59.951Z,12.56
2022-10-30T21:50:27.537Z,12.71
2022-10-30T21:52:55.161Z,12.74
2022-10-30T21:55:24.038Z,12.69
2022-10-30T21:57:51.881Z,12.46
2022-10-30T22:00:19.683Z,12.33
2022-10-30T22:02:47.486Z,12.28
2022-10-30T22:05:15.291Z,12.29
2022-10-30T22:07:43.903Z,12.36
2022-10-30T22:10:11.798Z,12.33
2022-10-30T22:12:40.771Z,12.43
2022-10-30T22:15:09.540Z,12.12
2022-10-30T22:17:36.847Z,12.07
2022-10-30T22:20:04.425Z,12.00
2022-10-30T22:22:32.656Z,12.22
2022-10-30T22:25:00.175Z,12.21
2022-10-30T22:27:29.619Z,12.08
2022-10-30T22:29:58.737Z,12.03
2022-10-30T22:32:26.368Z,11.94
2022-10-30T22:34:54.584Z,11.90
2022-10-30T22:37:21.886Z,11.83
2022-10-30T22:39:49.293Z,11.85
2022-10-30T22:42:16.873Z,11.81
2022-10-30T22:44:44.811Z,11.85
2022-10-30T22:47:13.547Z,11.81
2022-10-30T22:49:41.478Z,11.76
2022-10-30T22:52:08.873Z,11.70
2022-10-30T22:54:36.365Z,11.71
2022-10-30T22:57:04.144Z,11.75
2022-10-30T22:59:31.380Z,11.65
2022-10-30T23:01:59.104Z,11.61
2022-10-30T23:04:28.375Z,11.59
2022-10-30T23:06:55.920Z,11.55
2022-10-30T23:09:24.275Z,11.52
2022-10-30T23:11:51.612Z,11.54
2022-10-30T23:14:19.683Z,11.46
2022-10-30T23:16:47.038Z,11.35
2022-10-30T23:19:14.746Z,11.34
2022-10-30T23:21:43.661Z,11.34
2022-10-30T23:24:12.207Z,11.40
2022-10-30T23:26:39.847Z,11.32
2022-10-30T23:29:07.965Z,11.27
2022-10-30T23:31:37.865Z,11.27
2022-10-30T23:34:08.714Z,11.28
2022-10-30T23:36:36.957Z,10.90
2022-10-30T23:39:08.007Z,10.93
2022-10-30T23:41:35.447Z,10.84
2022-10-30T23:44:06.134Z,10.78
2022-10-30T23:46:35.128Z,11.02
2022-10-30T23:49:04.005Z,11.05
2022-10-30T23:51:31.438Z,10.90
2022-10-30T23:53:59.328Z,10.74
2022-10-30T23:56:28.366Z,10.62
2022-10-30T23:58:56.604Z,10.48
